Aérodrome :
LOGIN :

S'inscrire | Disclaimer

   EN    FR    IT 

 










Légende :    VFR   VFR Marginal   IFR   IFR Intensif   IFR Très Intensif
Visi : 
Plafond : 
>= 8 km
>= 3000ft
5 à 8 km
1000 à 3000 ft
1500m à 5 km
500 à 1000 ft
800 à 1500m
200 à 500 ft
< 800m
< 200 ft
Symboles :   Orages  Brouillard  Fortes neiges  Fortes précipitations  Vent > 20 kt
SIGMETs :   Divers  Orages  Givrage  Turbulence  Onde Orograph.  Cendres Volcan.







- Altitude de l'aérodrome : 776 ft
- Code IATA : RMS


ETAR - Ramstein Air Base

DERNIER METAR :
  • 180115Z 22006KT 6000 -SN BKN015 01/M01 A3019 RMK AO2A SLP240 $

METARs EXPIRÉS :
  • 172356Z 23006KT 9999 BKN015 BKN080 01/M01 A3023 RMK AO2A SLP253 T00121010 10018 20012 57018 $
  • 172256Z 24008KT 9999 BKN017 OVC095 01/M01 A3026 RMK AO2A SLP263 T00141012 400221012 $

TAF TAF ETAR
Valide du 17 à 18h jusqu'au 19 à 00h UTC


171807Z 1718/1824 23009KT 9999 OVC015 610209 611105 QNH3024INS
BECMG 1800/1801 22012G20KT 3200 -SN OVC015 610209 611105 QNH3009INS
TEMPO 1803/1808 1600 SN OVC007
BECMG 1807/1808 20006KT 5000 -RASN OVC008 610109 611005 QNH3008INS
BECMG 1814/1815 VRB03KT 9999 NSW BKN013 610209 611105 QNH3022INS
BECMG 1817/1818 VRB03KT 9999 BKN020 610209 611105 QNH3030INS TX02/1812Z TNM02/1802Z
Pas de NOTAMs connus pour ce terrain.
2 SIGMETs publiés pour la FIR Langen (EDGG) :
 
Givrage fort
EDGG SIGMET 2 VALID 180000/180300 EDZF
EDGG LANGEN FIR SEV ICE FCST NW OF LINE N4915 E00730 - N5120 E00850 1000FT/FL130 MOV SE NC=
Orages noyés dans la masse
EDGG SIGMET 1 VALID 172335/180100 EDZF
EDGG LANGEN FIR EMBD TS OBS N OF N5130 AND W OF E00800 TOP FL200 MOV SE WKN=



MET'MAP, la Météo Aéronautique d'un coup d'oeil ! - Copyright ORBIFLY Décembre 2007 - Disclaimer

ORBIFLY MET'MAP TEAM :

Programmation & Développement : Alexandra Zaïnal
Conception & Développement : Baudouin d'Aumeries
Co-Programmation & Développement : Marc-Olivier Méhu
Soutien technique & logistique : Manuel Goepfert

Contact : metmap@orbifly.com




SOURCES & CREDITS :

   NOAA